Time;durP1;ratioP1;P1;durP2;ratioP2;P2;SDS_P1;SDS_P2;PMS_P1;PMS_P2;Temp;Humidity;BMP_temperature;BMP_pressure;BME280_temperature;BME280_humidity;BME280_pressure;Samples;Min_cycle;Max_cycle;Signal;HPM_P1;HPM_P2
2023/02/11 00:00:57;;;;;;;15.55;3.67;;;;;;;6.13;100.00;103522.38;5114817;28;20035;-74
2023/02/11 00:03:23;;;;;;;17.30;4.05;;;;;;;6.15;100.00;103522.34;5114007;28;20533;-75
2023/02/11 00:06:03;;;;;;;23.20;5.30;;;;;;;6.16;100.00;103516.16;5114340;28;20059;-74
2023/02/11 00:08:28;;;;;;;20.58;3.70;;;;;;;6.16;100.00;103513.50;5113720;28;20395;-75
2023/02/11 00:10:55;;;;;;;16.25;4.63;;;;;;;6.14;100.00;103502.13;5113995;28;20028;-74
2023/02/11 00:13:21;;;;;;;17.60;4.05;;;;;;;6.12;100.00;103501.28;5113442;28;20047;-75
2023/02/11 00:15:47;;;;;;;19.85;4.00;;;;;;;6.11;100.00;103518.06;5112668;28;20544;-75
2023/02/11 00:18:12;;;;;;;27.45;4.63;;;;;;;6.13;100.00;103505.66;5112357;28;20176;-75
2023/02/11 00:20:38;;;;;;;21.08;4.15;;;;;;;6.11;100.00;103496.94;5113840;28;20051;-74
2023/02/11 00:23:04;;;;;;;24.40;4.43;;;;;;;6.09;100.00;103496.97;5114255;28;20031;-74
2023/02/11 00:25:29;;;;;;;30.90;4.03;;;;;;;6.09;100.00;103496.97;5112451;28;20035;-75
2023/02/11 00:27:55;;;;;;;20.60;4.68;;;;;;;6.11;100.00;103494.28;5113299;28;20115;-74
2023/02/11 00:30:20;;;;;;;15.55;3.83;;;;;;;6.07;100.00;103493.47;5113792;28;20452;-74
2023/02/11 00:32:48;;;;;;;19.40;4.10;;;;;;;6.05;100.00;103478.59;5113749;28;20481;-75
2023/02/11 00:35:14;;;;;;;21.65;3.92;;;;;;;6.07;100.00;103487.34;5113328;28;20080;-75
2023/02/11 00:37:39;;;;;;;16.27;4.18;;;;;;;6.04;100.00;103479.50;5114209;28;20340;-75
2023/02/11 00:40:05;;;;;;;20.23;4.68;;;;;;;6.07;100.00;103477.63;5113547;28;20070;-73
2023/02/11 00:42:30;;;;;;;17.65;4.45;;;;;;;6.05;100.00;103476.81;5113528;28;20036;-74
2023/02/11 00:44:56;;;;;;;27.83;5.07;;;;;;;6.04;100.00;103487.44;5113504;28;20446;-72
2023/02/11 00:47:21;;;;;;;20.33;4.38;;;;;;;6.00;100.00;103482.25;5113581;28;20035;-74
2023/02/11 00:49:47;;;;;;;22.45;4.20;;;;;;;5.98;100.00;103488.47;5113701;28;20043;-74
2023/02/11 00:52:12;;;;;;;22.00;4.18;;;;;;;5.95;100.00;103486.75;5113396;28;20379;-74
2023/02/11 00:54:39;;;;;;;28.25;4.38;;;;;;;5.95;100.00;103491.19;5113519;28;20418;-75
2023/02/11 00:57:04;;;;;;;26.33;4.93;;;;;;;5.96;100.00;103492.91;5113116;28;20027;-74
2023/02/11 00:59:29;;;;;;;28.45;4.43;;;;;;;5.95;100.00;103489.38;5112185;28;20399;-75
2023/02/11 01:01:55;;;;;;;22.92;5.90;;;;;;;5.96;100.00;103498.19;5113347;28;20031;-75
2023/02/11 01:04:20;;;;;;;17.58;4.22;;;;;;;5.95;100.00;103478.81;5113592;28;20085;-76
2023/02/11 01:06:46;;;;;;;19.08;5.20;;;;;;;5.98;100.00;103488.47;5116997;28;20476;-75
2023/02/11 01:09:11;;;;;;;19.95;4.78;;;;;;;6.01;100.00;103483.09;5117182;28;20486;-75
2023/02/11 01:11:37;;;;;;;23.63;5.53;;;;;;;6.00;100.00;103478.72;5117208;28;20035;-75
2023/02/11 01:14:02;;;;;;;20.38;5.85;;;;;;;5.99;100.00;103475.22;5117290;28;20115;-74
2023/02/11 01:16:28;;;;;;;19.75;6.13;;;;;;;5.99;100.00;103480.50;5117257;28;20027;-75
2023/02/11 01:18:53;;;;;;;20.88;5.80;;;;;;;5.95;100.00;103480.59;5116854;28;20031;-75
2023/02/11 01:21:18;;;;;;;17.80;5.78;;;;;;;5.92;100.00;103483.34;5117293;28;20039;-75
2023/02/11 01:23:44;;;;;;;22.40;6.40;;;;;;;5.83;100.00;103481.81;5117001;28;20062;-75
2023/02/11 01:26:09;;;;;;;19.45;5.63;;;;;;;5.77;100.00;103482.00;5116585;28;20467;-75
2023/02/11 01:28:34;;;;;;;25.20;6.93;;;;;;;5.71;100.00;103480.38;5117182;28;20497;-75
2023/02/11 01:31:01;;;;;;;24.40;6.28;;;;;;;5.68;100.00;103487.53;5117452;28;20038;-74
2023/02/11 01:33:27;;;;;;;22.58;6.25;;;;;;;5.65;100.00;103481.41;5116837;28;20031;-77
2023/02/11 01:35:53;;;;;;;17.20;5.63;;;;;;;5.63;100.00;103470.03;5116415;28;20066;-76
2023/02/11 01:38:24;;;;;;;29.48;6.25;;;;;;;5.58;100.00;103460.50;5116382;28;20030;-75
2023/02/11 01:40:51;;;;;;;;;;;;;;;5.50;100.00;103471.28;5117406;28;20147;-75
2023/02/11 01:43:17;;;;;;;20.33;5.68;;;;;;;5.45;100.00;103460.84;5115310;28;20431;-75
2023/02/11 01:45:45;;;;;;;25.20;7.28;;;;;;;5.36;100.00;103462.84;5116555;28;20027;-75
2023/02/11 01:48:21;;;;;;;32.40;6.55;;;;;;;5.28;100.00;103458.66;5116468;28;20147;-75
2023/02/11 01:50:52;;;;;;;24.60;7.25;;;;;;;5.21;100.00;103453.56;5116466;28;20031;-75
2023/02/11 01:58:50;;;;;;;23.67;6.22;;;;;;;5.17;100.00;103459.84;5116950;28;20047;-75
2023/02/11 02:01:21;;;;;;;30.48;6.85;;;;;;;5.17;100.00;103457.22;5115586;28;20363;-74
2023/02/11 02:03:53;;;;;;;21.73;6.38;;;;;;;5.11;100.00;103459.09;5116615;28;20024;-75
2023/02/11 02:06:39;;;;;;;26.05;7.28;;;;;;;5.11;100.00;103455.59;5116520;28;20117;-75
2023/02/11 02:09:10;;;;;;;21.50;6.88;;;;;;;5.06;100.00;103452.19;5115995;28;20032;-73
2023/02/11 02:11:36;;;;;;;28.67;8.07;;;;;;;5.02;100.00;103456.69;5116415;28;20027;-75
2023/02/11 02:14:01;;;;;;;24.75;6.32;;;;;;;5.04;100.00;103454.88;5114737;28;20143;-75
2023/02/11 02:16:33;;;;;;;23.30;7.68;;;;;;;4.99;100.00;103458.56;5114987;28;20038;-75
2023/02/11 02:19:26;;;;;;;22.42;7.32;;;;;;;5.02;100.00;103458.47;5116221;28;20028;-75
2023/02/11 02:22:03;;;;;;;28.10;7.13;;;;;;;4.96;100.00;103438.38;5115939;28;20115;-75
2023/02/11 02:24:31;;;;;;;27.55;7.35;;;;;;;4.97;100.00;103450.66;5116057;28;20072;-75
2023/02/11 02:27:18;;;;;;;22.60;8.25;;;;;;;4.99;100.00;103446.22;5116068;28;20027;-75
2023/02/11 02:29:52;;;;;;;29.05;9.07;;;;;;;4.94;100.00;103461.28;5115932;28;20478;-75
2023/02/11 02:32:29;;;;;;;27.05;8.32;;;;;;;4.85;100.00;103465.03;5115383;28;20031;-75
2023/02/11 02:35:08;;;;;;;28.05;8.63;;;;;;;4.79;100.00;103470.44;5115924;28;20084;-75
2023/02/11 02:37:40;;;;;;;30.75;9.25;;;;;;;4.84;100.00;103467.72;5115929;28;20028;-75
2023/02/11 02:40:14;;;;;;;28.75;9.30;;;;;;;4.83;100.00;103460.69;5115801;28;20100;-75
2023/02/11 02:42:41;;;;;;;29.88;8.70;;;;;;;4.79;100.00;103465.16;5116093;28;20024;-75
2023/02/11 02:45:09;;;;;;;27.15;8.45;;;;;;;4.81;100.00;103458.09;5115557;28;20028;-75
2023/02/11 02:47:35;;;;;;;31.90;10.25;;;;;;;4.82;100.00;103466.88;5115410;28;20019;-74
2023/02/11 02:50:00;;;;;;;35.40;8.68;;;;;;;4.81;100.00;103470.41;5115293;28;20372;-75
2023/02/11 02:52:45;;;;;;;36.20;9.45;;;;;;;4.80;100.00;103460.75;5115245;28;20399;-74
2023/02/11 02:55:18;;;;;;;30.63;8.80;;;;;;;4.82;100.00;103461.59;5115902;28;20360;-75
2023/02/11 02:57:57;;;;;;;24.05;8.88;;;;;;;4.77;100.00;103467.81;5114547;28;20383;-75
2023/02/11 03:00:57;;;;;;;31.60;11.20;;;;;;;4.75;100.00;103466.16;5115132;28;20032;-75
2023/02/11 03:03:40;;;;;;;30.35;9.60;;;;;;;4.76;100.00;103473.16;5114781;28;20023;-74
2023/02/11 03:06:16;;;;;;;27.92;9.93;;;;;;;4.73;100.00;103474.09;5114751;28;20483;-75
2023/02/11 03:08:57;;;;;;;41.22;9.23;;;;;;;4.69;100.00;103469.81;5115799;28;20417;-75
2023/02/11 03:11:24;;;;;;;39.70;10.10;;;;;;;4.65;100.00;103462.00;5113461;28;20031;-75
2023/02/11 03:13:51;;;;;;;35.53;10.95;;;;;;;4.65;100.00;103462.00;5114938;28;20059;-75
2023/02/11 03:16:21;;;;;;;30.17;10.07;;;;;;;4.69;100.00;103455.75;5115008;28;20025;-75
2023/02/11 03:18:59;;;;;;;63.30;11.73;;;;;;;4.64;100.00;103455.84;5115150;28;20051;-75
2023/02/11 03:21:25;;;;;;;36.65;11.10;;;;;;;4.64;100.00;103457.63;5114683;28;20379;-74
2023/02/11 03:23:58;;;;;;;30.15;10.63;;;;;;;4.72;100.00;103453.91;5114748;28;20027;-75
2023/02/11 03:26:37;;;;;;;36.25;10.52;;;;;;;4.68;100.00;103467.19;5114559;28;20019;-75
2023/02/11 03:29:37;;;;;;;32.58;11.02;;;;;;;4.56;100.00;103469.22;5114159;28;20107;-75
2023/02/11 03:32:22;;;;;;;31.40;10.60;;;;;;;4.53;100.00;103466.66;5108209;28;20480;-75
2023/02/11 03:35:12;;;;;;;29.98;11.25;;;;;;;4.58;100.00;103461.25;5114395;28;20020;-75
2023/02/11 03:37:47;;;;;;;32.38;11.45;;;;;;;4.55;100.00;103456.94;5114948;28;20517;-75
2023/02/11 03:40:20;;;;;;;32.80;11.02;;;;;;;4.53;100.00;103452.59;5114930;28;20398;-75
2023/02/11 03:42:51;;;;;;;35.13;12.43;;;;;;;4.62;100.00;103446.25;5114739;28;20035;-75
2023/02/11 03:45:20;;;;;;;47.50;13.60;;;;;;;4.66;100.00;103438.22;5113998;28;20388;-74
2023/02/11 03:47:52;;;;;;;39.42;12.10;;;;;;;4.69;100.00;103432.88;5114261;28;20053;-75
2023/02/11 03:50:20;;;;;;;48.03;12.75;;;;;;;4.62;100.00;103441.84;5114676;27;20028;-74
2023/02/11 03:52:48;;;;;;;35.30;13.18;;;;;;;4.62;100.00;103436.56;5114177;28;20092;-75
2023/02/11 03:55:19;;;;;;;33.22;12.70;;;;;;;4.61;100.00;103448.00;5114121;28;20106;-75
2023/02/11 03:57:46;;;;;;;36.33;11.73;;;;;;;4.60;100.00;103454.19;5114150;28;20028;-74
2023/02/11 04:00:13;;;;;;;34.65;13.05;;;;;;;4.66;100.00;103447.88;5114848;28;20039;-75
2023/02/11 04:02:39;;;;;;;40.35;12.73;;;;;;;4.67;100.00;103452.28;5113900;27;20075;-74
2023/02/11 04:05:09;;;;;;;34.95;13.07;;;;;;;4.59;100.00;103440.13;5113227;28;20035;-75
2023/02/11 04:07:34;;;;;;;51.85;14.98;;;;;;;4.62;100.00;103448.88;5113824;28;20038;-75
2023/02/11 04:10:00;;;;;;;38.35;12.68;;;;;;;4.64;100.00;103442.66;5113619;28;20032;-75
2023/02/11 04:12:25;;;;;;;43.28;13.95;;;;;;;4.66;100.00;103442.63;5113934;28;20032;-75
2023/02/11 04:14:50;;;;;;;41.60;14.65;;;;;;;4.71;100.00;103446.03;5114456;28;20055;-75
2023/02/11 04:17:16;;;;;;;41.58;15.32;;;;;;;4.70;100.00;103445.16;5113918;28;20027;-75
2023/02/11 04:19:41;;;;;;;42.47;14.75;;;;;;;4.70;100.00;103434.63;5113796;28;20114;-75
2023/02/11 04:22:07;;;;;;;41.78;14.38;;;;;;;4.72;100.00;103437.22;5113920;28;20032;-75
2023/02/11 04:24:33;;;;;;;50.28;15.18;;;;;;;4.74;100.00;103440.66;5113854;28;20104;-74
2023/02/11 04:26:58;;;;;;;38.22;16.05;;;;;;;4.74;100.00;103440.66;5114230;28;20032;-75
2023/02/11 04:29:24;;;;;;;36.25;14.80;;;;;;;4.73;100.00;103452.13;5115246;28;20024;-76
2023/02/11 04:31:49;;;;;;;42.70;16.70;;;;;;;4.73;100.00;103446.84;5114781;28;20037;-75
2023/02/11 04:34:15;;;;;;;44.53;16.23;;;;;;;4.68;100.00;103440.81;5114444;28;20034;-75
2023/02/11 04:36:40;;;;;;;52.28;16.92;;;;;;;4.66;100.00;103432.94;5115641;28;20038;-75
2023/02/11 04:39:08;;;;;;;39.05;15.95;;;;;;;4.65;100.00;103433.84;5113544;28;20036;-75
2023/02/11 04:41:34;;;;;;;37.83;15.60;;;;;;;4.64;100.00;103444.44;5116716;28;20051;-75
2023/02/11 04:43:59;;;;;;;47.38;16.52;;;;;;;4.71;100.00;103444.25;5117759;28;20051;-75
2023/02/11 04:46:25;;;;;;;42.13;16.42;;;;;;;4.68;100.00;103443.47;5118289;28;20420;-74
2023/02/11 04:48:50;;;;;;;40.88;15.75;;;;;;;4.66;100.00;103453.16;5117727;28;20023;-75
2023/02/11 04:51:16;;;;;;;46.40;17.55;;;;;;;4.65;100.00;103448.81;5118099;28;20460;-75
2023/02/11 04:53:41;;;;;;;39.42;16.40;;;;;;;4.66;100.00;103445.25;5117616;28;20035;-75
2023/02/11 04:56:07;;;;;;;45.85;16.27;;;;;;;4.66;100.00;103438.22;5117642;28;20045;-75
2023/02/11 04:58:32;;;;;;;41.05;17.50;;;;;;;4.67;100.00;103431.16;5117519;28;20104;-75
2023/02/11 05:01:09;;;;;;;48.00;17.33;;;;;;;4.69;100.00;103427.59;5117416;28;20035;-77
2023/02/11 05:03:34;;;;;;;51.50;16.73;;;;;;;4.67;100.00;103434.69;5117222;28;20376;-74
2023/02/11 05:06:00;;;;;;;52.72;17.35;;;;;;;4.70;100.00;103433.72;5117383;28;20034;-74
2023/02/11 05:08:26;;;;;;;43.83;16.63;;;;;;;4.74;100.00;103440.66;5117034;28;20480;-73
2023/02/11 05:10:51;;;;;;;43.35;17.70;;;;;;;4.81;100.00;103434.34;5117431;28;20464;-75
2023/02/11 05:13:16;;;;;;;39.80;16.98;;;;;;;4.75;100.00;103434.50;5115608;28;20516;-76
2023/02/11 05:15:42;;;;;;;45.17;17.10;;;;;;;4.77;100.00;103428.25;5117199;28;20536;-74
2023/02/11 05:18:07;;;;;;;52.03;19.13;;;;;;;4.81;100.00;103439.63;5116862;28;20023;-75
2023/02/11 05:20:33;;;;;;;43.72;17.55;;;;;;;4.81;100.00;103436.09;5117068;28;20035;-75
2023/02/11 05:22:58;;;;;;;42.85;18.65;;;;;;;4.80;100.00;103439.66;5115741;28;20081;-75
2023/02/11 05:25:23;;;;;;;51.95;18.58;;;;;;;4.84;100.00;103455.38;5117464;28;20507;-75
2023/02/11 05:27:49;;;;;;;53.78;19.23;;;;;;;4.85;100.00;103458.88;5117238;28;20076;-75
2023/02/11 05:30:17;;;;;;;53.35;18.17;;;;;;;4.84;100.00;103465.06;5116896;28;20077;-75
2023/02/11 05:32:42;;;;;;;43.65;17.88;;;;;;;4.83;100.00;103472.09;5116854;28;20035;-75
2023/02/11 05:35:08;;;;;;;46.25;19.77;;;;;;;4.90;100.00;103471.06;5115587;28;20076;-76
2023/02/11 05:37:34;;;;;;;55.40;20.38;;;;;;;4.95;100.00;103479.72;5116630;27;20038;-75
2023/02/11 05:39:59;;;;;;;54.42;20.45;;;;;;;4.98;100.00;103480.56;5116699;28;20122;-75
2023/02/11 05:42:24;;;;;;;46.78;18.33;;;;;;;5.01;100.00;103489.25;5116689;28;20464;-75
2023/02/11 05:44:50;;;;;;;51.42;19.13;;;;;;;5.00;100.00;103484.91;5116548;28;20024;-76
2023/02/11 05:47:15;;;;;;;49.45;20.00;;;;;;;4.99;100.00;103485.78;5117062;28;20494;-76
2023/02/11 05:49:40;;;;;;;57.88;20.40;;;;;;;5.02;100.00;103483.06;5116614;28;20040;-75
2023/02/11 05:52:06;;;;;;;58.13;19.92;;;;;;;5.06;100.00;103489.13;5116063;27;20028;-76
2023/02/11 05:54:31;;;;;;;47.78;19.75;;;;;;;5.08;100.00;103482.06;5116375;28;20160;-74
2023/02/11 05:56:56;;;;;;;52.72;20.65;;;;;;;5.06;100.00;103479.47;5116357;28;20387;-75
2023/02/11 05:59:22;;;;;;;49.50;20.92;;;;;;;5.08;100.00;103472.34;5116296;28;20034;-76
2023/02/11 06:01:47;;;;;;;58.83;21.45;;;;;;;5.07;100.00;103475.91;5116195;28;20380;-76
2023/02/11 06:04:13;;;;;;;55.83;20.70;;;;;;;5.09;100.00;103475.84;5116101;28;20044;-76
2023/02/11 06:06:38;;;;;;;54.97;21.10;;;;;;;5.07;100.00;103475.91;5116393;28;20059;-75
2023/02/11 06:09:03;;;;;;;55.20;21.23;;;;;;;5.10;100.00;103470.53;5116189;27;20032;-75
2023/02/11 06:11:28;;;;;;;55.50;20.00;;;;;;;5.07;100.00;103467.97;5116044;28;20045;-75
2023/02/11 06:13:54;;;;;;;52.40;20.52;;;;;;;5.01;100.00;103465.50;5115537;28;20048;-75
2023/02/11 06:16:19;;;;;;;52.72;20.40;;;;;;;5.01;100.00;103469.91;5116342;28;20040;-75
2023/02/11 06:18:44;;;;;;;50.78;19.75;;;;;;;4.98;100.00;103480.56;5114741;28;20035;-75
2023/02/11 06:21:10;;;;;;;52.85;20.35;;;;;;;4.97;100.00;103468.25;5115967;28;20431;-75
2023/02/11 06:23:36;;;;;;;53.08;21.38;;;;;;;4.93;100.00;103470.97;5115938;28;20467;-73
2023/02/11 06:26:06;;;;;;;47.25;18.58;;;;;;;4.85;100.00;103472.94;5115840;28;20038;-74
2023/02/11 06:28:32;;;;;;;49.08;19.30;;;;;;;4.82;100.00;103467.75;5115597;28;20032;-74
2023/02/11 06:31:05;;;;;;;50.33;19.65;;;;;;;4.78;100.00;103466.06;5115525;28;20447;-74
2023/02/11 06:33:30;;;;;;;58.30;20.40;;;;;;;4.81;100.00;103473.91;5115973;28;20548;-74
2023/02/11 06:35:55;;;;;;;56.60;21.25;;;;;;;4.80;100.00;103474.81;5114203;28;20047;-74
2023/02/11 06:38:21;;;;;;;60.50;21.85;;;;;;;4.79;100.00;103473.06;5115615;28;20031;-74
2023/02/11 06:40:48;;;;;;;47.05;19.52;;;;;;;4.80;100.00;103471.31;5114246;28;20084;-74
2023/02/11 06:43:13;;;;;;;53.38;20.85;;;;;;;4.85;100.00;103474.69;5115216;28;20459;-74
2023/02/11 06:45:38;;;;;;;51.35;19.00;;;;;;;4.92;100.00;103476.28;5115405;28;20112;-74
2023/02/11 06:48:04;;;;;;;46.72;18.33;;;;;;;4.90;100.00;103478.09;5115072;28;20055;-74
2023/02/11 06:50:29;;;;;;;52.22;19.50;;;;;;;4.87;100.00;103479.03;5115702;28;20416;-74
2023/02/11 06:52:55;;;;;;;45.72;19.63;;;;;;;4.89;100.00;103484.28;5113894;28;20035;-74
2023/02/11 06:55:20;;;;;;;40.80;18.52;;;;;;;4.89;100.00;103479.84;5114963;28;20042;-74
2023/02/11 06:57:45;;;;;;;45.20;17.35;;;;;;;4.88;100.00;103478.16;5115026;28;20371;-74
2023/02/11 07:00:12;;;;;;;45.85;20.25;;;;;;;4.91;100.00;103475.44;5115029;28;20046;-75
2023/02/11 07:02:37;;;;;;;43.30;18.23;;;;;;;5.03;100.00;103476.91;5114536;27;20085;-75
2023/02/11 07:05:05;;;;;;;46.95;18.20;;;;;;;5.05;100.00;103485.63;5096678;28;20031;-75
2023/02/11 07:07:31;;;;;;;42.50;17.98;;;;;;;5.07;100.00;103489.09;5114875;28;20082;-75
2023/02/11 07:09:57;;;;;;;40.53;17.92;;;;;;;5.06;100.00;103478.56;5114730;28;20035;-75
2023/02/11 07:12:22;;;;;;;43.55;18.55;;;;;;;5.17;100.00;103494.16;5114290;28;20417;-75
2023/02/11 07:14:47;;;;;;;47.03;18.30;;;;;;;5.28;100.00;103492.97;5114928;28;20475;-74
2023/02/11 07:17:13;;;;;;;48.92;18.60;;;;;;;5.38;100.00;103498.03;5114760;28;20051;-75
2023/02/11 07:19:38;;;;;;;38.83;18.00;;;;;;;5.41;100.00;103498.78;5115018;28;20386;-75
2023/02/11 07:22:04;;;;;;;41.75;18.20;;;;;;;5.41;100.00;103497.94;5114649;27;20384;-74
2023/02/11 07:24:29;;;;;;;45.70;17.70;;;;;;;5.46;100.00;103506.59;5113458;28;20361;-77
2023/02/11 07:26:55;;;;;;;41.25;18.52;;;;;;;5.48;100.00;103504.78;5114645;28;20056;-77
2023/02/11 07:29:20;;;;;;;41.67;18.58;;;;;;;5.51;100.00;103504.72;5114576;28;20118;-77
2023/02/11 07:31:45;;;;;;;43.90;18.52;;;;;;;5.59;100.00;103515.06;5114422;28;20031;-76
2023/02/11 07:34:11;;;;;;;47.72;17.38;;;;;;;5.65;100.00;103510.47;5114238;28;20032;-77
2023/02/11 07:36:36;;;;;;;33.47;17.02;;;;;;;5.73;100.00;103517.31;5113388;28;20028;-76
2023/02/11 07:39:02;;;;;;;43.65;18.17;;;;;;;5.79;100.00;103510.13;5114257;28;20035;-75
2023/02/11 07:41:28;;;;;;;44.92;17.90;;;;;;;5.83;100.00;103521.44;5114298;27;20038;-75
2023/02/11 07:43:53;;;;;;;34.53;17.52;;;;;;;5.87;100.00;103522.22;5114190;28;20031;-75
2023/02/11 07:46:22;;;;;;;34.92;16.58;;;;;;;5.89;100.00;103526.56;5113932;28;20399;-75
2023/02/11 07:48:48;;;;;;;34.15;16.80;;;;;;;5.93;100.00;103522.06;5113806;28;20534;-76
2023/02/11 07:51:16;;;;;;;37.42;17.15;;;;;;;6.00;100.00;103524.53;5114044;28;20067;-76
2023/02/11 07:53:42;;;;;;;31.98;15.93;;;;;;;6.07;100.00;103525.22;5114333;28;20027;-79
2023/02/11 07:56:08;;;;;;;32.42;16.00;;;;;;;6.09;100.00;103518.13;5113855;28;20471;-76
2023/02/11 07:58:35;;;;;;;34.65;16.08;;;;;;;6.14;100.00;103510.06;5114049;28;20046;-76
2023/02/11 08:01:02;;;;;;;34.35;16.38;;;;;;;6.15;100.00;103515.28;5114762;28;20039;-77
2023/02/11 08:03:28;;;;;;;34.03;15.55;;;;;;;6.16;100.00;103524.94;5114049;28;20058;-77
2023/02/11 08:05:53;;;;;;;35.00;15.27;;;;;;;6.21;100.00;103538.06;5114159;28;20456;-76
2023/02/11 08:08:18;;;;;;;37.05;15.48;;;;;;;6.25;100.00;103531.72;5113199;28;20071;-77
2023/02/11 08:10:44;;;;;;;29.42;15.68;;;;;;;6.29;100.00;103525.44;5113920;28;20027;-78
2023/02/11 08:13:09;;;;;;;32.45;14.20;;;;;;;6.30;100.00;103534.25;5114165;28;20035;-77
2023/02/11 08:15:34;;;;;;;27.40;14.63;;;;;;;6.32;100.00;103527.16;5114168;28;20050;-77
2023/02/11 08:18:00;;;;;;;32.92;14.25;;;;;;;6.36;100.00;103531.44;5113881;28;20069;-77
2023/02/11 08:20:25;;;;;;;27.10;13.73;;;;;;;6.42;100.00;103530.38;5114194;28;20496;-77
2023/02/11 08:22:50;;;;;;;28.85;14.02;;;;;;;6.49;100.00;103531.91;5113821;28;20060;-76
2023/02/11 08:25:16;;;;;;;26.63;12.88;;;;;;;6.52;100.00;103530.06;5113534;28;20528;-78
2023/02/11 08:27:41;;;;;;;26.27;13.32;;;;;;;6.58;100.00;103534.28;5114181;28;20031;-76
2023/02/11 08:30:08;;;;;;;27.73;13.32;;;;;;;6.57;100.00;103527.28;5113332;28;20036;-76
2023/02/11 08:32:34;;;;;;;25.70;13.18;;;;;;;6.59;100.00;103543.09;5113948;28;20031;-77
2023/02/11 08:34:59;;;;;;;21.55;12.50;;;;;;;6.65;100.00;103543.75;5113316;28;20486;-76
2023/02/11 08:37:24;;;;;;;26.40;12.75;;;;;;;6.69;100.00;103553.34;5113665;28;20034;-77
2023/02/11 08:39:50;;;;;;;26.88;12.88;;;;;;;6.73;100.00;103550.59;5112210;28;20032;-74
2023/02/11 08:42:15;;;;;;;25.40;12.98;;;;;;;6.79;100.00;103558.34;5113616;28;20106;-77
2023/02/11 08:44:41;;;;;;;23.05;12.80;;;;;;;6.81;100.00;103560.03;5113264;28;20040;-77
2023/02/11 08:47:07;;;;;;;24.52;12.13;;;;;;;6.88;100.00;103563.34;5113256;28;20110;-76
2023/02/11 08:49:32;;;;;;;25.23;12.98;;;;;;;6.93;100.00;103566.72;5113741;28;20430;-78
2023/02/11 08:52:02;;;;;;;25.00;12.27;;;;;;;6.91;100.00;103573.84;5113422;28;20077;-77
2023/02/11 08:54:28;;;;;;;24.20;12.90;;;;;;;6.97;100.00;103580.72;5113478;28;20527;-77
2023/02/11 08:56:53;;;;;;;20.73;11.52;;;;;;;6.97;100.00;103576.31;5113619;28;20059;-73
2023/02/11 08:59:19;;;;;;;25.67;11.02;;;;;;;7.00;100.00;103584.16;5114806;28;20444;-77
2023/02/11 09:01:46;;;;;;;25.98;11.30;;;;;;;7.00;100.00;103584.16;5121083;28;20074;-75
2023/02/11 09:04:11;;;;;;;20.40;10.43;;;;;;;7.04;100.00;103579.63;5118252;28;20043;-74
2023/02/11 09:06:37;;;;;;;15.45;10.40;;;;;;;7.12;100.00;103579.38;5124191;28;20027;-75
2023/02/11 09:09:02;;;;;;;24.25;10.40;;;;;;;7.20;100.00;103570.25;5114422;28;20043;-75
2023/02/11 09:11:34;;;;;;;23.83;10.77;;;;;;;7.27;100.00;103578.88;5113726;28;20109;-75
2023/02/11 09:13:59;;;;;;;;;;;;;;;7.28;100.00;103572.66;5113673;28;20052;-75
2023/02/11 09:16:28;;;;;;;22.70;10.52;;;;;;;7.34;100.00;103574.25;5113023;28;19912;-76
2023/02/11 09:18:56;;;;;;;18.70;9.52;;;;;;;7.40;100.00;103579.34;5111597;28;20406;-76
2023/02/11 09:21:21;;;;;;;23.63;10.75;;;;;;;7.45;100.00;103571.22;5113378;28;20035;-75
2023/02/11 09:23:47;;;;;;;18.70;9.25;;;;;;;7.41;100.00;103573.13;5111739;28;20036;-76
2023/02/11 09:26:25;;;;;;;19.00;9.90;;;;;;;7.43;100.00;103578.38;5112813;28;20019;-75
2023/02/11 09:28:51;;;;;;;18.05;9.75;;;;;;;7.48;100.00;103579.06;5116715;28;20023;-74
2023/02/11 09:31:19;;;;;;;20.92;9.07;;;;;;;7.47;100.00;103577.34;5098175;28;20035;-74
2023/02/11 09:33:47;;;;;;;21.38;8.35;;;;;;;7.48;100.00;103579.97;5116834;28;20028;-74
2023/02/11 09:36:20;;;;;;;20.33;9.00;;;;;;;7.47;100.00;103583.50;5116802;28;20046;-75
2023/02/11 09:38:46;;;;;;;20.63;9.05;;;;;;;7.47;100.00;103583.50;5116778;28;20444;-75
2023/02/11 09:41:20;;;;;;;18.33;8.88;;;;;;;7.50;100.00;103588.69;5116363;28;20556;-74
2023/02/11 09:43:48;;;;;;;17.58;9.07;;;;;;;7.51;100.00;103584.25;5116824;28;20031;-76
2023/02/11 09:46:16;;;;;;;16.10;8.88;;;;;;;7.54;100.00;103585.03;5116650;28;20027;-74
2023/02/11 09:48:44;;;;;;;16.73;8.68;;;;;;;7.59;100.00;103590.19;5116988;28;20035;-74
2023/02/11 09:51:26;;;;;;;17.85;8.15;;;;;;;7.65;100.00;103586.47;5116036;28;20028;-74
2023/02/11 09:53:57;;;;;;;16.90;8.80;;;;;;;7.67;100.00;103595.22;5116481;28;20038;-75
2023/02/11 09:56:23;;;;;;;11.85;7.95;;;;;;;7.73;100.00;103598.53;5116159;28;20028;-75
2023/02/11 09:58:49;;;;;;;14.82;8.85;;;;;;;7.76;100.00;103605.50;5115993;28;20114;-76
2023/02/11 10:01:42;;;;;;;20.55;9.30;;;;;;;7.79;100.00;103601.88;5116442;28;20110;-76
2023/02/11 10:04:32;;;;;;;16.23;7.80;;;;;;;7.88;100.00;103602.44;5116801;28;20023;-75
2023/02/11 10:07:09;;;;;;;16.95;8.35;;;;;;;8.00;100.00;103597.59;5116455;28;20050;-76
2023/02/11 10:10:01;;;;;;;16.02;8.93;;;;;;;8.09;100.00;103608.75;5116070;28;20024;-76
2023/02/11 10:12:40;;;;;;;15.70;8.35;;;;;;;8.10;100.00;103612.25;5107175;28;20032;-75
2023/02/11 10:15:12;;;;;;;16.45;8.70;;;;;;;8.11;100.00;103612.22;5115953;28;20188;-75
2023/02/11 10:18:05;;;;;;;16.48;8.70;;;;;;;8.09;100.00;103618.47;5116211;28;20107;-75
2023/02/11 10:20:36;;;;;;;19.23;8.70;;;;;;;8.06;100.00;103616.81;5115878;28;20464;-75
2023/02/11 10:23:12;;;;;;;16.85;8.57;;;;;;;8.06;100.00;103630.09;5116542;28;20405;-74
2023/02/11 10:25:51;;;;;;;15.18;8.07;;;;;;;8.08;100.00;103637.97;5116307;28;20034;-76
2023/02/11 10:28:19;;;;;;;21.98;8.88;;;;;;;8.08;100.00;103637.97;5115738;28;20024;-75
2023/02/11 10:30:53;;;;;;;16.77;8.93;;;;;;;8.05;100.00;103643.41;5114935;28;20359;-74
2023/02/11 10:33:38;;;;;;;16.70;9.52;;;;;;;8.03;100.00;103648.75;5115760;28;20448;-75
2023/02/11 10:36:04;;;;;;;17.45;9.05;;;;;;;8.00;100.00;103653.28;5115646;28;20059;-77
2023/02/11 10:38:31;;;;;;;14.93;9.15;;;;;;;7.98;100.00;103655.13;5113978;28;20084;-74
2023/02/11 10:40:57;;;;;;;20.75;9.40;;;;;;;8.02;100.00;103652.31;5115308;28;20043;-74
2023/02/11 10:43:26;;;;;;;14.63;8.95;;;;;;;8.02;100.00;103649.66;5114896;28;20150;-75
2023/02/11 10:45:54;;;;;;;15.63;9.38;;;;;;;8.02;100.00;103648.81;5115295;28;20052;-74
2023/02/11 10:48:51;;;;;;;18.55;9.32;;;;;;;8.10;100.00;103660.84;5114852;28;20032;-75
2023/02/11 10:51:30;;;;;;;15.30;9.40;;;;;;;8.12;100.00;103663.44;5115036;28;20050;-75
2023/02/11 10:54:08;;;;;;;17.17;10.45;;;;;;;8.18;100.00;103657.06;5114837;28;20093;-75
2023/02/11 10:56:40;;;;;;;15.80;9.60;;;;;;;8.20;100.00;103661.41;5115722;28;20027;-74
2023/02/11 10:59:16;;;;;;;19.67;9.82;;;;;;;8.19;100.00;103667.63;5115325;28;20080;-75
2023/02/11 11:01:44;;;;;;;19.85;9.60;;;;;;;8.21;100.00;103668.47;5115397;28;20027;-74
2023/02/11 11:04:25;;;;;;;17.40;9.10;;;;;;;8.26;100.00;103677.09;5114789;28;20039;-73
2023/02/11 11:06:50;;;;;;;17.55;10.55;;;;;;;8.26;100.00;103676.25;5115237;28;20030;-74
2023/02/11 11:09:29;;;;;;;18.95;9.55;;;;;;;8.26;100.00;103673.59;5113478;28;20380;-74
2023/02/11 11:11:55;;;;;;;22.48;9.82;;;;;;;8.26;100.00;103681.56;5115298;28;20019;-74
2023/02/11 11:14:27;;;;;;;19.27;9.32;;;;;;;8.26;100.00;103674.44;5114585;28;20470;-74
2023/02/11 11:16:53;;;;;;;14.93;9.38;;;;;;;8.22;100.00;103680.78;5115002;28;20035;-74
2023/02/11 11:19:24;;;;;;;17.98;9.52;;;;;;;8.23;100.00;103682.53;5115299;28;20360;-74
2023/02/11 11:21:52;;;;;;;20.07;9.77;;;;;;;8.27;100.00;103685.91;5115447;28;20035;-74
2023/02/11 11:24:21;;;;;;;15.55;9.15;;;;;;;8.22;100.00;103683.44;5114690;28;20278;-74
2023/02/11 11:27:00;;;;;;;18.45;9.35;;;;;;;8.13;100.00;103686.41;5113838;28;20456;-76